Time;durP1;ratioP1;P1;durP2;ratioP2;P2;SDS_P1;SDS_P2;PMS_P1;PMS_P2;Temp;Humidity;BMP_temperature;BMP_pressure;BME280_temperature;BME280_humidity;BME280_pressure;Samples;Min_cycle;Max_cycle;Signal;HPM_P1;HPM_P2
2022/04/30 00:01:19;;;;;;;15.90;10.63;;;13.50;99.90;;;;;;4994523;28;20506;-71
2022/04/30 00:03:45;;;;;;;15.80;10.93;;;13.50;99.90;;;;;;4993267;28;20037;-71
2022/04/30 00:06:11;;;;;;;20.27;10.80;;;13.50;99.90;;;;;;5011405;28;20376;-72
2022/04/30 00:08:38;;;;;;;19.83;12.00;;;13.40;99.90;;;;;;4992979;28;20052;-69
2022/04/30 00:11:04;;;;;;;21.85;12.13;;;13.40;99.90;;;;;;5011146;28;20022;-70
2022/04/30 00:13:30;;;;;;;15.07;9.95;;;13.40;99.90;;;;;;5011575;28;20025;-70
2022/04/30 00:15:56;;;;;;;15.93;10.07;;;13.40;99.90;;;;;;5011438;28;20033;-70
2022/04/30 00:18:22;;;;;;;19.92;10.70;;;13.40;99.90;;;;;;4993421;28;20026;-70
2022/04/30 00:20:48;;;;;;;18.13;11.00;;;13.40;99.90;;;;;;5010239;28;20352;-71
2022/04/30 00:23:21;;;;;;;21.70;11.50;;;13.40;99.90;;;;;;4993591;28;20030;-70
2022/04/30 00:25:49;;;;;;;16.08;10.02;;;13.40;99.90;;;;;;4993090;28;20395;-71
2022/04/30 00:28:16;;;;;;;14.95;10.50;;;13.40;99.90;;;;;;4992998;28;20060;-70
2022/04/30 00:30:44;;;;;;;18.52;10.82;;;13.40;99.90;;;;;;4993064;28;20038;-69
2022/04/30 00:33:10;;;;;;;20.17;10.90;;;13.40;99.90;;;;;;4994208;28;20037;-71
2022/04/30 00:35:37;;;;;;;12.07;9.00;;;13.50;99.90;;;;;;5010903;28;20480;-67
2022/04/30 00:38:03;;;;;;;13.05;9.57;;;13.40;99.90;;;;;;5011141;28;20431;-71
2022/04/30 00:40:28;;;;;;;16.48;10.02;;;13.40;99.90;;;;;;4993681;28;20075;-69
2022/04/30 00:42:54;;;;;;;14.85;10.18;;;13.40;99.90;;;;;;4993695;28;20030;-70
2022/04/30 00:45:20;;;;;;;22.08;12.05;;;13.40;99.90;;;;;;5014600;28;20103;-70
2022/04/30 00:47:46;;;;;;;14.45;9.50;;;13.40;99.90;;;;;;4996796;28;20026;-69
2022/04/30 00:50:15;;;;;;;19.35;10.93;;;13.30;99.90;;;;;;5014616;28;20029;-71
2022/04/30 00:52:43;;;;;;;16.95;10.02;;;13.20;99.90;;;;;;4996596;28;20076;-71
2022/04/30 00:55:11;;;;;;;16.23;10.40;;;13.30;99.90;;;;;;4997488;28;20033;-71
2022/04/30 00:57:41;;;;;;;16.45;10.35;;;13.20;99.90;;;;;;4996831;28;20030;-71
2022/04/30 01:00:08;;;;;;;18.08;10.75;;;13.20;99.90;;;;;;5014891;28;20072;-71
2022/04/30 01:02:34;;;;;;;18.02;10.15;;;13.10;99.90;;;;;;5014742;28;20096;-70
2022/04/30 01:05:00;;;;;;;14.80;10.38;;;13.10;99.90;;;;;;5014011;28;20464;-70
2022/04/30 01:07:28;;;;;;;17.85;10.50;;;13.10;99.90;;;;;;5014909;28;20032;-70
2022/04/30 01:09:55;;;;;;;19.45;10.90;;;13.00;99.90;;;;;;4996276;28;20387;-71
2022/04/30 01:12:22;;;;;;;16.67;10.50;;;13.00;99.90;;;;;;5014494;28;20030;-71
2022/04/30 01:14:49;;;;;;;14.90;9.82;;;13.00;99.90;;;;;;4996340;28;20029;-71
2022/04/30 01:17:15;;;;;;;20.70;10.80;;;12.90;99.90;;;;;;4997034;28;20025;-72
2022/04/30 01:19:45;;;;;;;14.95;10.27;;;12.80;99.90;;;;;;5014155;28;20518;-70
2022/04/30 01:22:40;;;;;;;19.05;10.68;;;12.80;99.90;;;;;;4997030;28;20325;-70
2022/04/30 01:25:07;;;;;;;16.90;11.18;;;12.80;99.90;;;;;;4996105;28;20069;-71
2022/04/30 01:27:36;;;;;;;14.55;10.07;;;12.80;99.90;;;;;;4996239;28;20026;-70
2022/04/30 01:30:04;;;;;;;17.40;10.05;;;12.70;99.90;;;;;;5013731;28;20144;-70
2022/04/30 01:38:12;;;;;;;11.73;9.30;;;12.80;99.90;;;;;;5014116;28;20494;-70
2022/04/30 01:40:38;;;;;;;12.25;9.05;;;12.80;99.90;;;;;;4996225;28;20030;-70
2022/04/30 01:43:05;;;;;;;17.05;10.18;;;12.80;99.90;;;;;;4995450;28;20030;-71
2022/04/30 01:45:33;;;;;;;18.60;11.20;;;12.70;99.90;;;;;;5013646;28;20045;-70
2022/04/30 01:48:01;;;;;;;15.50;11.30;;;12.60;99.90;;;;;;5013225;28;20026;-70
2022/04/30 01:50:27;;;;;;;15.00;10.65;;;12.70;99.90;;;;;;5013397;28;20034;-70
2022/04/30 01:52:52;;;;;;;15.73;9.95;;;12.70;99.90;;;;;;4995742;28;20030;-70
2022/04/30 01:55:18;;;;;;;15.43;10.40;;;12.70;99.90;;;;;;4995445;28;20033;-70
2022/04/30 01:57:44;;;;;;;13.13;10.23;;;12.70;99.90;;;;;;4995691;28;20034;-69
2022/04/30 02:00:13;;;;;;;12.65;9.25;;;12.60;99.90;;;;;;5013377;28;20030;-70
2022/04/30 02:02:45;;;;;;;19.15;11.55;;;12.70;99.90;;;;;;4996189;28;20044;-71
2022/04/30 02:05:13;;;;;;;16.38;10.13;;;12.70;99.90;;;;;;5013668;28;20049;-71
2022/04/30 02:07:46;;;;;;;15.43;10.52;;;12.70;99.90;;;;;;5013377;28;20030;-71
2022/04/30 02:10:12;;;;;;;15.07;9.93;;;12.30;99.90;;;;;;5013041;28;20041;-70
2022/04/30 02:12:39;;;;;;;13.27;9.70;;;12.40;99.90;;;;;;5013038;28;20026;-71
2022/04/30 02:15:05;;;;;;;13.05;9.95;;;12.40;99.90;;;;;;4994981;28;20562;-71
2022/04/30 02:17:36;;;;;;;12.50;10.40;;;12.50;99.90;;;;;;4995759;28;20052;-71
2022/04/30 02:22:47;;;;;;;12.65;9.75;;;12.30;99.90;;;;;;5012724;28;20045;-70
2022/04/30 02:25:14;;;;;;;14.63;9.25;;;12.30;99.90;;;;;;5012621;28;20173;-69
2022/04/30 02:27:42;;;;;;;14.60;10.45;;;12.50;99.90;;;;;;5012543;28;20026;-69
2022/04/30 02:30:11;;;;;;;14.90;10.80;;;12.30;99.90;;;;;;5013052;28;20036;-70
2022/04/30 02:32:47;;;;;;;13.00;10.10;;;12.40;99.90;;;;;;4994867;28;20029;-70
2022/04/30 02:35:15;;;;;;;15.55;11.07;;;12.50;99.90;;;;;;4995147;28;20025;-70
2022/04/30 02:37:44;;;;;;;13.27;9.95;;;12.50;99.90;;;;;;4995132;28;20080;-70
2022/04/30 02:40:13;;;;;;;13.05;10.63;;;12.60;99.90;;;;;;4995183;28;20404;-71
2022/04/30 02:42:41;;;;;;;12.40;9.48;;;12.60;99.90;;;;;;4995227;28;20029;-70
2022/04/30 02:45:11;;;;;;;13.45;9.38;;;12.40;99.90;;;;;;4994383;28;20040;-70
2022/04/30 02:47:38;;;;;;;12.23;8.90;;;12.40;99.90;;;;;;5012430;28;20030;-70
2022/04/30 02:50:06;;;;;;;12.55;8.18;;;12.50;99.90;;;;;;4994367;28;20061;-70
2022/04/30 02:52:32;;;;;;;11.55;9.30;;;12.50;99.90;;;;;;5012338;28;20022;-71
2022/04/30 02:54:57;;;;;;;12.88;10.05;;;12.50;99.90;;;;;;5011508;28;20036;-70
2022/04/30 02:57:23;;;;;;;11.57;9.95;;;12.40;99.90;;;;;;4994696;28;20026;-69
2022/04/30 02:59:54;;;;;;;13.38;10.02;;;12.50;99.90;;;;;;4994155;28;20447;-70
2022/04/30 03:02:21;;;;;;;12.13;8.85;;;12.50;99.90;;;;;;5012222;28;20471;-70
2022/04/30 03:04:51;;;;;;;10.40;8.68;;;12.50;99.90;;;;;;5011486;28;20042;-69
2022/04/30 03:07:18;;;;;;;10.98;9.10;;;12.50;99.90;;;;;;4994166;28;20049;-70
2022/04/30 03:09:46;;;;;;;10.45;8.45;;;12.60;99.90;;;;;;5012224;28;20025;-69
2022/04/30 03:12:13;;;;;;;11.13;8.48;;;12.40;99.90;;;;;;4994339;28;20026;-70
2022/04/30 03:14:39;;;;;;;14.13;9.93;;;12.50;99.90;;;;;;5012142;28;20029;-70
2022/04/30 03:22:34;;;;;;;12.07;9.48;;;12.40;99.90;;;;;;5011958;28;20036;-71
2022/04/30 03:25:00;;;;;;;14.52;9.55;;;12.50;99.90;;;;;;5011287;28;20367;-70
2022/04/30 03:27:25;;;;;;;17.38;10.35;;;12.50;99.90;;;;;;4993576;28;20454;-69
2022/04/30 03:29:51;;;;;;;12.80;9.00;;;12.50;99.90;;;;;;4993291;28;20111;-69
2022/04/30 03:32:17;;;;;;;12.52;9.63;;;12.30;99.90;;;;;;5011617;28;20509;-70
2022/04/30 03:34:43;;;;;;;10.32;8.93;;;12.40;99.90;;;;;;4993962;28;20117;-71
2022/04/30 03:37:09;;;;;;;11.68;9.18;;;12.30;99.90;;;;;;5011434;28;20534;-71
2022/04/30 03:39:34;;;;;;;11.82;10.05;;;12.30;99.90;;;;;;5011704;28;20026;-70
2022/04/30 03:42:01;;;;;;;10.45;9.02;;;12.00;99.90;;;;;;5011142;28;20040;-71
2022/04/30 03:44:27;;;;;;;14.35;10.27;;;12.00;99.90;;;;;;5011443;28;20494;-70
2022/04/30 03:46:52;;;;;;;11.95;9.18;;;12.00;99.90;;;;;;5011490;28;20105;-71
2022/04/30 03:49:18;;;;;;;11.32;9.98;;;12.10;99.90;;;;;;5011805;28;20518;-70
2022/04/30 03:51:44;;;;;;;12.40;8.98;;;12.10;99.90;;;;;;5011915;28;20024;-71
2022/04/30 03:54:09;;;;;;;12.48;10.00;;;12.10;99.90;;;;;;5011335;28;20498;-70
2022/04/30 03:56:35;;;;;;;14.88;10.95;;;12.10;99.90;;;;;;5012300;28;20053;-71
2022/04/30 03:59:01;;;;;;;13.30;10.77;;;12.20;99.90;;;;;;5011514;28;20049;-69
2022/04/30 04:01:27;;;;;;;13.98;10.13;;;12.10;99.90;;;;;;5012267;28;20018;-71
2022/04/30 04:03:53;;;;;;;13.95;10.73;;;12.00;99.90;;;;;;4993995;28;20030;-69
2022/04/30 04:06:19;;;;;;;13.32;10.25;;;12.10;99.90;;;;;;4994412;28;20045;-71
2022/04/30 04:08:49;;;;;;;13.38;10.45;;;12.10;99.90;;;;;;5011425;28;20076;-71
2022/04/30 04:11:16;;;;;;;11.93;10.00;;;12.10;99.90;;;;;;5011631;28;20053;-71
2022/04/30 04:19:10;;;;;;;10.88;9.73;;;12.00;99.90;;;;;;5015025;28;20091;-72
2022/04/30 04:21:36;;;;;;;12.90;10.20;;;12.00;99.90;;;;;;5015216;28;20037;-71
2022/04/30 04:26:46;;;;;;;16.13;11.88;;;12.10;99.90;;;;;;5015154;28;20485;-71
2022/04/30 04:29:16;;;;;;;16.33;11.32;;;11.90;99.90;;;;;;4996613;28;20050;-71
2022/04/30 04:31:44;;;;;;;20.48;12.23;;;11.80;99.90;;;;;;4997605;28;20042;-71
2022/04/30 04:34:10;;;;;;;15.60;11.90;;;11.80;99.90;;;;;;4996566;28;20324;-71
2022/04/30 04:36:36;;;;;;;17.60;12.25;;;11.90;99.90;;;;;;4997369;28;20026;-70
2022/04/30 04:39:12;;;;;;;16.27;11.77;;;11.90;99.90;;;;;;4996763;28;20366;-71
2022/04/30 04:41:39;;;;;;;18.45;11.50;;;11.80;99.90;;;;;;5015089;28;20072;-72
2022/04/30 04:44:05;;;;;;;13.00;10.50;;;11.70;99.90;;;;;;4996590;28;20109;-71
2022/04/30 04:46:31;;;;;;;15.48;10.60;;;11.70;99.90;;;;;;4997179;28;20605;-72
2022/04/30 04:48:57;;;;;;;15.55;10.57;;;11.60;99.90;;;;;;4996433;28;20058;-72
2022/04/30 04:51:22;;;;;;;21.75;12.35;;;11.40;99.90;;;;;;4997194;28;20176;-73
2022/04/30 04:53:48;;;;;;;19.48;11.02;;;11.50;99.90;;;;;;4997072;28;20025;-71
2022/04/30 04:56:14;;;;;;;15.93;10.98;;;11.60;99.90;;;;;;4996423;28;20062;-71
2022/04/30 04:58:42;;;;;;;15.00;9.65;;;11.60;99.90;;;;;;4997351;28;20045;-72
2022/04/30 05:01:08;;;;;;;13.02;10.70;;;11.70;99.90;;;;;;4996115;28;20105;-71
2022/04/30 05:03:33;;;;;;;16.90;10.80;;;11.60;99.90;;;;;;5014141;28;20455;-72
2022/04/30 05:05:59;;;;;;;13.57;10.55;;;11.50;99.90;;;;;;5013910;28;20034;-72
2022/04/30 05:08:25;;;;;;;16.77;10.98;;;11.60;99.90;;;;;;5014424;28;20061;-71
2022/04/30 05:10:50;;;;;;;13.40;11.18;;;11.70;99.90;;;;;;5014734;28;20115;-71
2022/04/30 05:13:16;;;;;;;15.55;11.55;;;11.70;99.90;;;;;;4995868;28;20386;-71
2022/04/30 05:15:42;;;;;;;20.48;11.80;;;11.50;99.90;;;;;;5014395;28;20034;-72
2022/04/30 05:18:08;;;;;;;17.00;12.55;;;11.60;99.90;;;;;;5014098;28;20335;-72
2022/04/30 05:20:34;;;;;;;14.40;10.38;;;11.50;99.90;;;;;;5014377;28;20030;-71
2022/04/30 05:23:00;;;;;;;11.63;9.85;;;11.40;99.90;;;;;;5013469;28;20364;-72
2022/04/30 05:25:26;;;;;;;17.95;11.65;;;11.20;99.90;;;;;;4996009;28;20034;-72
2022/04/30 05:27:52;;;;;;;15.30;11.10;;;11.40;99.90;;;;;;4996174;28;20033;-71
2022/04/30 05:30:18;;;;;;;17.23;10.68;;;11.30;99.90;;;;;;5013292;28;20116;-71
2022/04/30 05:32:43;;;;;;;17.00;12.13;;;11.30;99.90;;;;;;5014651;28;20065;-71
2022/04/30 05:35:10;;;;;;;17.17;12.05;;;11.30;99.90;;;;;;5013314;28;20595;-71
2022/04/30 05:37:35;;;;;;;16.38;12.65;;;11.50;99.90;;;;;;4996551;28;20029;-72
2022/04/30 05:40:01;;;;;;;14.20;10.88;;;11.30;99.90;;;;;;5013373;28;20034;-72
2022/04/30 05:42:27;;;;;;;16.73;11.50;;;11.40;99.90;;;;;;5014152;28;20029;-72
2022/04/30 05:44:52;;;;;;;16.23;10.98;;;11.40;99.90;;;;;;5013766;28;20030;-71
2022/04/30 05:47:19;;;;;;;16.58;11.18;;;11.40;99.90;;;;;;4995538;28;20446;-71
2022/04/30 05:49:45;;;;;;;15.38;11.25;;;11.40;99.90;;;;;;4996166;28;20043;-72
2022/04/30 05:52:11;;;;;;;17.00;10.85;;;11.50;99.90;;;;;;4995427;28;20026;-71
2022/04/30 05:54:37;;;;;;;19.73;12.25;;;11.50;99.90;;;;;;4995799;28;20033;-73
2022/04/30 05:57:04;;;;;;;16.98;11.73;;;11.40;99.90;;;;;;5012960;28;20034;-73
2022/04/30 05:59:29;;;;;;;19.77;12.30;;;11.40;99.90;;;;;;4995729;28;20042;-72
2022/04/30 06:01:55;;;;;;;15.68;11.70;;;11.30;99.90;;;;;;4995614;28;20025;-66
2022/04/30 06:04:21;;;;;;;14.55;11.13;;;11.10;99.90;;;;;;5013527;28;20064;-72
2022/04/30 06:06:47;;;;;;;17.05;11.35;;;11.00;99.90;;;;;;5008752;28;20053;-73
2022/04/30 06:09:13;;;;;;;14.35;10.77;;;11.00;99.90;;;;;;4995798;28;20037;-71
2022/04/30 06:11:39;;;;;;;15.30;10.75;;;11.00;99.90;;;;;;5013471;28;20078;-73
2022/04/30 06:14:05;;;;;;;14.88;11.82;;;11.00;99.90;;;;;;4994707;28;20057;-73
2022/04/30 06:16:30;;;;;;;12.43;9.82;;;11.00;99.90;;;;;;5013649;28;20061;-71
2022/04/30 06:18:56;;;;;;;14.45;9.73;;;10.90;99.90;;;;;;5012852;28;20037;-70
2022/04/30 06:21:23;;;;;;;12.43;10.35;;;11.10;99.90;;;;;;5012763;28;20037;-72
2022/04/30 06:23:50;;;;;;;16.65;10.43;;;11.00;99.90;;;;;;5020647;28;20029;-73
2022/04/30 06:26:15;;;;;;;14.20;11.43;;;11.10;99.90;;;;;;5011933;28;20045;-72
2022/04/30 06:28:41;;;;;;;12.60;8.13;;;11.20;99.90;;;;;;5012625;28;20066;-68
2022/04/30 06:31:07;;;;;;;9.43;6.32;;;11.90;99.90;;;;;;5012520;28;20467;-66
2022/04/30 06:33:33;;;;;;;10.85;8.98;;;13.50;99.90;;;;;;4998623;28;20018;-66
2022/04/30 06:35:59;;;;;;;8.75;7.30;;;13.40;99.90;;;;;;5012088;28;20062;-65
2022/04/30 06:38:25;;;;;;;7.28;5.68;;;13.90;99.90;;;;;;5012344;28;20030;-65
2022/04/30 06:40:51;;;;;;;15.63;9.05;;;14.40;99.90;;;;;;5006613;28;20026;-69
2022/04/30 06:43:19;;;;;;;9.88;8.60;;;13.60;99.90;;;;;;5006253;28;20026;-70
2022/04/30 06:45:45;;;;;;;10.52;8.32;;;12.70;99.90;;;;;;5012308;28;20057;-71
2022/04/30 06:48:11;;;;;;;10.77;8.70;;;12.40;99.90;;;;;;4990149;28;20027;-70
2022/04/30 06:50:36;;;;;;;10.40;8.70;;;12.10;99.90;;;;;;4989815;28;20382;-71
2022/04/30 06:58:40;;;;;;;11.55;8.93;;;11.70;99.90;;;;;;5012486;28;20083;-71
2022/04/30 07:04:01;;;;;;;11.48;8.80;;;11.70;99.90;;;;;;5011869;28;20052;-72
2022/04/30 07:06:30;;;;;;;11.10;8.93;;;11.70;99.90;;;;;;4994000;28;20042;-71
2022/04/30 07:08:55;;;;;;;12.30;9.20;;;11.60;99.90;;;;;;5009493;28;20034;-72
2022/04/30 07:11:22;;;;;;;11.32;8.38;;;11.60;99.90;;;;;;4992786;28;20033;-71
2022/04/30 07:13:48;;;;;;;10.27;7.93;;;11.70;99.90;;;;;;5009790;28;20030;-71
2022/04/30 07:16:13;;;;;;;13.20;9.25;;;11.70;99.90;;;;;;4988671;28;20037;-72
2022/04/30 07:18:39;;;;;;;9.80;8.73;;;11.70;99.90;;;;;;4994208;28;20021;-71
2022/04/30 07:21:05;;;;;;;9.95;8.60;;;11.70;99.90;;;;;;4993615;28;20041;-71
2022/04/30 07:23:31;;;;;;;10.60;8.98;;;11.70;99.90;;;;;;4993919;28;20049;-71
2022/04/30 07:25:57;;;;;;;12.30;8.43;;;11.70;99.90;;;;;;5008443;28;20038;-72
2022/04/30 07:28:23;;;;;;;12.43;8.45;;;11.60;99.90;;;;;;5010225;28;20046;-71
2022/04/30 07:30:50;;;;;;;18.80;9.55;;;11.80;99.90;;;;;;4993633;28;20032;-73
2022/04/30 07:33:16;;;;;;;13.48;10.00;;;11.70;99.90;;;;;;5006903;28;20088;-71
2022/04/30 07:35:41;;;;;;;14.40;10.57;;;11.80;99.90;;;;;;4991929;28;20042;-71
2022/04/30 07:38:07;;;;;;;11.63;10.30;;;11.60;99.90;;;;;;4986929;28;20037;-71
2022/04/30 07:40:35;;;;;;;12.88;9.55;;;11.70;99.90;;;;;;4991518;28;20026;-71
2022/04/30 07:43:02;;;;;;;12.70;9.15;;;11.50;99.90;;;;;;5010902;28;20091;-68
2022/04/30 07:45:28;;;;;;;13.13;8.93;;;11.60;99.90;;;;;;4993720;28;20041;-72
2022/04/30 07:47:54;;;;;;;10.10;8.73;;;11.70;99.90;;;;;;4993286;28;20369;-73
2022/04/30 07:50:25;;;;;;;16.70;10.32;;;11.60;99.90;;;;;;5010556;28;20053;-71
2022/04/30 07:52:51;;;;;;;11.30;9.32;;;11.50;99.90;;;;;;5010858;28;20030;-72
2022/04/30 07:55:16;;;;;;;11.07;9.32;;;11.60;99.90;;;;;;4992656;28;20032;-72
2022/04/30 07:57:42;;;;;;;11.57;9.35;;;11.60;99.90;;;;;;5003922;28;20052;-71
2022/04/30 08:00:08;;;;;;;13.52;9.20;;;11.50;99.90;;;;;;5007737;28;20029;-71
2022/04/30 08:02:34;;;;;;;17.63;10.35;;;11.60;99.90;;;;;;5010069;28;20080;-71
2022/04/30 08:05:03;;;;;;;13.65;10.30;;;11.60;99.90;;;;;;5008668;28;20415;-73
2022/04/30 08:07:29;;;;;;;11.02;9.00;;;11.60;99.90;;;;;;4993258;28;20041;-75
2022/04/30 08:09:55;;;;;;;12.70;9.25;;;11.50;99.90;;;;;;4993536;28;20120;-71
2022/04/30 08:12:21;;;;;;;13.32;10.13;;;11.60;99.90;;;;;;5010706;28;20030;-74
2022/04/30 08:14:48;;;;;;;16.52;10.15;;;12.20;99.90;;;;;;5011380;28;20046;-78
2022/04/30 08:17:13;;;;;;;15.25;8.45;;;12.20;99.90;;;;;;4992899;28;20033;-71
2022/04/30 08:22:10;;;;;;;9.98;7.90;;;12.10;99.90;;;;;;5029162;28;20050;-66
2022/04/30 08:24:36;;;;;;;8.65;7.35;;;12.00;99.90;;;;;;5013382;28;20152;-65
2022/04/30 08:27:01;;;;;;;10.80;7.20;;;11.90;99.90;;;;;;5032138;28;20084;-65
2022/04/30 08:29:30;;;;;;;8.57;6.25;;;11.80;99.90;;;;;;5014957;28;20034;-66
2022/04/30 08:31:55;;;;;;;7.20;6.05;;;11.70;99.90;;;;;;5020994;28;20123;-64
2022/04/30 08:34:21;;;;;;;8.35;5.38;;;11.60;99.90;;;;;;5034700;28;20060;-66
2022/04/30 08:36:48;;;;;;;9.43;5.35;;;11.50;99.90;;;;;;5031193;28;20021;-65
2022/04/30 08:39:14;;;;;;;7.30;5.10;;;11.40;99.90;;;;;;5013639;28;20034;-66
2022/04/30 08:41:42;;;;;;;6.25;5.07;;;11.50;99.90;;;;;;5004128;28;20060;-65
2022/04/30 08:44:13;;;;;;;6.15;5.40;;;11.50;99.90;;;;;;5033974;28;20033;-66
2022/04/30 08:46:39;;;;;;;8.82;5.78;;;11.50;99.90;;;;;;5033315;28;20040;-64
2022/04/30 08:49:08;;;;;;;9.80;6.30;;;11.50;99.90;;;;;;5034197;28;20037;-72
2022/04/30 08:51:33;;;;;;;5.75;4.95;;;11.50;99.90;;;;;;5033784;28;20037;-70
2022/04/30 08:53:59;;;;;;;6.18;5.40;;;11.50;99.90;;;;;;5052009;28;20025;-65
2022/04/30 08:56:25;;;;;;;6.68;5.65;;;11.50;99.90;;;;;;5034098;28;20264;-64
2022/04/30 08:58:56;;;;;;;9.13;5.40;;;11.40;99.90;;;;;;5034435;28;20060;-70
2022/04/30 09:01:22;;;;;;;7.70;5.47;;;11.30;99.90;;;;;;5033810;28;20075;-64
2022/04/30 09:03:48;;;;;;;5.40;4.88;;;11.20;99.90;;;;;;5052969;28;20100;-67
2022/04/30 09:06:18;;;;;;;6.47;4.55;;;11.30;99.90;;;;;;5054963;28;20450;-66
2022/04/30 09:08:53;;;;;;;7.03;5.47;;;11.10;99.90;;;;;;5055598;28;20075;-66
2022/04/30 09:11:27;;;;;;;6.95;5.15;;;11.10;99.90;;;;;;5037158;28;20025;-67
2022/04/30 09:13:53;;;;;;;9.52;5.13;;;11.10;99.90;;;;;;5037855;28;20130;-67
2022/04/30 09:16:21;;;;;;;8.13;5.18;;;11.30;99.90;;;;;;5055025;28;20486;-71
2022/04/30 09:18:48;;;;;;;10.73;5.68;;;11.30;99.90;;;;;;5038126;28;20367;-65
2022/04/30 09:21:15;;;;;;;6.75;6.05;;;11.20;99.90;;;;;;5054741;28;20528;-66
2022/04/30 09:23:41;;;;;;;6.15;5.03;;;11.00;99.90;;;;;;5055590;28;20032;-65
2022/04/30 09:26:10;;;;;;;5.95;5.35;;;11.00;99.90;;;;;;5021758;28;20496;-67
2022/04/30 09:28:38;;;;;;;10.65;5.65;;;11.00;99.90;;;;;;5038368;28;20025;-66
2022/04/30 09:31:09;;;;;;;5.50;4.95;;;10.90;99.90;;;;;;5056540;28;20025;-66
2022/04/30 09:33:37;;;;;;;9.23;5.88;;;11.00;99.90;;;;;;5039375;28;20559;-66
2022/04/30 09:38:53;;;;;;;6.85;6.00;;;10.90;99.90;;;;;;5056105;28;20082;-66
2022/04/30 09:41:27;;;;;;;8.27;6.00;;;10.90;99.90;;;;;;5056091;28;20509;-65
2022/04/30 09:44:00;;;;;;;6.75;5.53;;;11.00;99.90;;;;;;5056820;28;20025;-67
2022/04/30 09:46:27;;;;;;;7.45;6.38;;;11.00;99.90;;;;;;5037515;28;20088;-64
2022/04/30 09:54:22;;;;;;;10.40;6.10;;;11.10;99.90;;;;;;5054886;28;20082;-71
2022/04/30 09:56:51;;;;;;;8.07;5.47;;;11.30;99.90;;;;;;5025527;28;20029;-65
2022/04/30 09:59:20;;;;;;;7.90;6.40;;;11.30;99.90;;;;;;5014273;28;20061;-67
2022/04/30 10:01:48;;;;;;;7.85;6.53;;;11.20;99.90;;;;;;4980212;28;20045;-67
2022/04/30 10:04:18;;;;;;;6.68;6.00;;;11.30;99.90;;;;;;4996622;28;20483;-65
2022/04/30 10:06:49;;;;;;;10.45;7.70;;;11.20;99.90;;;;;;5015438;28;20026;-63
2022/04/30 10:09:26;;;;;;;6.85;6.10;;;11.30;99.90;;;;;;5034124;28;20079;-65
2022/04/30 10:12:31;;;;;;;9.63;6.07;;;11.20;99.90;;;;;;5051666;28;20087;-65
2022/04/30 10:15:04;;;;;;;13.25;6.53;;;11.10;99.90;;;;;;5054522;28;20029;-63
2022/04/30 10:17:33;;;;;;;7.88;5.90;;;11.10;99.90;;;;;;5042194;28;20029;-69
2022/04/30 10:20:16;;;;;;;8.60;7.18;;;11.00;99.90;;;;;;5016424;28;20042;-65
2022/04/30 10:22:56;;;;;;;8.27;5.70;;;11.00;99.90;;;;;;5034532;28;20037;-66
2022/04/30 10:25:40;;;;;;;7.72;6.53;;;10.90;99.90;;;;;;5040259;28;20112;-63
2022/04/30 10:28:26;;;;;;;8.15;6.22;;;11.00;99.90;;;;;;5051266;28;20489;-65
2022/04/30 10:31:00;;;;;;;6.90;5.82;;;11.20;99.90;;;;;;5035689;28;20382;-65
2022/04/30 10:33:26;;;;;;;8.57;7.68;;;11.10;99.90;;;;;;5035341;28;20029;-66
2022/04/30 10:36:10;;;;;;;8.75;6.18;;;11.10;99.90;;;;;;5054377;28;20041;-65
2022/04/30 10:38:36;;;;;;;12.35;7.30;;;11.20;99.90;;;;;;5035281;28;20086;-64
2022/04/30 10:41:04;;;;;;;11.30;8.63;;;11.00;99.90;;;;;;5040941;28;20029;-64
2022/04/30 10:43:35;;;;;;;10.55;7.50;;;11.00;99.90;;;;;;5037180;28;20025;-68
2022/04/30 10:46:22;;;;;;;9.68;6.88;;;11.00;99.90;;;;;;5024821;28;20037;-65
2022/04/30 10:48:48;;;;;;;10.77;7.32;;;11.00;99.90;;;;;;5034346;28;20083;-68
2022/04/30 10:51:15;;;;;;;10.88;7.22;;;11.10;99.90;;;;;;5032904;28;20105;-70
2022/04/30 10:53:46;;;;;;;8.93;6.65;;;11.10;99.90;;;;;;5025425;28;20040;-67
2022/04/30 10:56:13;;;;;;;8.23;7.38;;;10.90;99.90;;;;;;5035640;28;20437;-64
2022/04/30 10:58:41;;;;;;;9.32;7.75;;;10.90;99.90;;;;;;5023176;28;20073;-65
2022/04/30 11:01:15;;;;;;;8.15;6.38;;;11.00;99.90;;;;;;4996334;28;20438;-63
2022/04/30 11:03:45;;;;;;;8.40;7.47;;;11.00;99.90;;;;;;5008841;28;20021;-70
2022/04/30 11:06:17;;;;;;;8.10;6.45;;;10.90;99.90;;;;;;5015818;28;20102;-67
2022/04/30 11:08:42;;;;;;;16.33;8.27;;;11.00;99.90;;;;;;5033460;28;20022;-67
2022/04/30 11:11:08;;;;;;;10.98;7.03;;;10.90;99.90;;;;;;5033540;28;20036;-66
2022/04/30 11:13:34;;;;;;;8.82;7.10;;;11.00;99.90;;;;;;5025303;28;20030;-65
2022/04/30 11:15:59;;;;;;;12.30;7.72;;;10.90;99.90;;;;;;5013450;28;20022;-65
2022/04/30 11:18:26;;;;;;;10.40;7.72;;;11.00;99.90;;;;;;4995193;28;20378;-66
2022/04/30 11:21:01;;;;;;;11.23;7.82;;;11.00;99.90;;;;;;4995449;28;20521;-66
2022/04/30 11:23:31;;;;;;;11.52;7.57;;;11.20;99.90;;;;;;5012590;28;20471;-64
2022/04/30 11:25:57;;;;;;;14.82;7.85;;;11.20;99.90;;;;;;5021595;28;20037;-69
2022/04/30 11:28:29;;;;;;;10.35;7.68;;;11.20;99.90;;;;;;5014190;28;20463;-66
2022/04/30 11:30:59;;;;;;;9.80;7.72;;;11.30;99.90;;;;;;5015617;28;20029;-72
2022/04/30 11:33:36;;;;;;;8.30;7.38;;;11.20;99.90;;;;;;5014182;28;20025;-67
2022/04/30 11:36:02;;;;;;;10.30;7.72;;;11.20;99.90;;;;;;5015430;28;20493;-70
2022/04/30 11:38:28;;;;;;;9.95;7.43;;;11.10;99.90;;;;;;5032578;28;20029;-64
2022/04/30 11:41:10;;;;;;;9.05;7.15;;;11.20;99.90;;;;;;5033416;28;20022;-66
2022/04/30 11:43:36;;;;;;;8.88;7.70;;;11.30;99.90;;;;;;5014592;28;20474;-64
2022/04/30 11:46:03;;;;;;;12.90;7.07;;;11.30;99.90;;;;;;5014977;28;20048;-73
2022/04/30 11:48:38;;;;;;;11.57;7.53;;;11.30;99.90;;;;;;5032158;28;20049;-66
2022/04/30 11:51:05;;;;;;;10.05;7.68;;;11.30;99.90;;;;;;5044742;28;20143;-66
2022/04/30 11:53:31;;;;;;;14.88;9.10;;;11.20;99.90;;;;;;5014066;28;20039;-68
2022/04/30 11:55:57;;;;;;;9.77;8.40;;;11.40;99.90;;;;;;5035184;28;20123;-65
2022/04/30 11:58:23;;;;;;;9.52;7.50;;;11.40;99.90;;;;;;5032929;28;20026;-66
2022/04/30 12:00:52;;;;;;;10.20;8.20;;;11.40;99.90;;;;;;5052221;28;20052;-64
2022/04/30 12:03:28;;;;;;;8.05;6.75;;;11.60;99.90;;;;;;5025513;28;20356;-65
2022/04/30 12:05:53;;;;;;;10.23;7.22;;;11.80;99.90;;;;;;5021054;28;20470;-65
2022/04/30 12:08:19;;;;;;;7.55;6.78;;;12.00;99.90;;;;;;5046889;28;20037;-66
2022/04/30 12:10:54;;;;;;;10.60;7.88;;;12.00;99.90;;;;;;5019318;28;20026;-67
2022/04/30 12:13:24;;;;;;;10.60;7.65;;;12.10;99.90;;;;;;5031243;28;20060;-64
2022/04/30 12:16:01;;;;;;;9.60;7.32;;;12.30;99.90;;;;;;5032338;28;20040;-66
2022/04/30 12:26:58;;;;;;;11.02;7.22;;;12.90;99.90;;;;;;5052207;28;20075;-66
2022/04/30 12:29:25;;;;;;;11.05;6.43;;;13.10;99.90;;;;;;5011045;28;20044;-65
2022/04/30 12:31:51;;;;;;;11.32;7.65;;;13.20;99.90;;;;;;5029974;28;20033;-65
2022/04/30 12:34:30;;;;;;;13.50;6.57;;;13.20;99.90;;;;;;5030475;28;20080;-65
2022/04/30 12:36:58;;;;;;;11.13;7.38;;;13.50;99.90;;;;;;5012383;28;20021;-64
2022/04/30 12:39:25;;;;;;;16.35;7.28;;;13.60;99.90;;;;;;5032730;28;20045;-65
2022/04/30 12:41:57;;;;;;;12.13;6.95;;;13.70;99.90;;;;;;5056708;28;20386;-63
2022/04/30 12:44:23;;;;;;;10.02;6.68;;;13.40;99.90;;;;;;5020622;28;20022;-66
2022/04/30 12:46:49;;;;;;;8.55;7.20;;;13.70;99.90;;;;;;4999372;28;20042;-65
2022/04/30 12:49:21;;;;;;;8.52;6.90;;;13.80;99.90;;;;;;5015251;28;20029;-64
2022/04/30 12:51:49;;;;;;;9.65;7.00;;;14.00;99.90;;;;;;5035364;28;20040;-72
2022/04/30 12:54:16;;;;;;;8.20;6.93;;;14.00;99.90;;;;;;5017062;28;20417;-68
2022/04/30 12:56:43;;;;;;;8.18;6.05;;;14.00;99.90;;;;;;5013014;28;20505;-68
2022/04/30 12:59:10;;;;;;;14.10;7.28;;;14.20;99.90;;;;;;5019496;28;20025;-65
2022/04/30 13:01:40;;;;;;;9.05;6.22;;;14.40;99.90;;;;;;5024731;28;20036;-66
2022/04/30 13:04:08;;;;;;;7.97;6.90;;;14.40;99.90;;;;;;5045552;28;20040;-65
2022/04/30 13:06:36;;;;;;;10.57;6.90;;;14.50;99.90;;;;;;5036083;28;20109;-66
2022/04/30 13:14:32;;;;;;;12.25;7.70;;;14.90;99.90;;;;;;4971219;28;20030;-69
2022/04/30 13:16:59;;;;;;;16.90;6.55;;;15.20;99.90;;;;;;4955566;28;20434;-71
2022/04/30 13:19:25;;;;;;;8.25;6.50;;;15.40;99.90;;;;;;4968625;28;20489;-69
2022/04/30 13:21:51;;;;;;;10.52;7.00;;;15.50;99.90;;;;;;4954858;28;20413;-71
2022/04/30 13:24:16;;;;;;;11.25;6.80;;;15.50;99.90;;;;;;4956714;28;20590;-69
2022/04/30 13:26:43;;;;;;;8.55;7.05;;;15.50;99.90;;;;;;4953498;28;20530;-70
2022/04/30 13:29:10;;;;;;;9.90;6.60;;;15.40;99.90;;;;;;4970508;28;20516;-69
2022/04/30 13:31:40;;;;;;;9.85;6.88;;;15.60;99.90;;;;;;4957085;28;20289;-68
2022/04/30 13:34:07;;;;;;;8.07;6.68;;;15.70;99.90;;;;;;4953842;28;20180;-68